createdAt,value
2019-05-26T00:00:31.103Z,71.19
2019-05-26T00:03:25.929Z,71.41
2019-05-26T00:06:13.159Z,71.65
2019-05-26T00:09:00.410Z,71.71
2019-05-26T00:11:48.382Z,71.97
2019-05-26T00:14:35.190Z,72.16
2019-05-26T00:17:22.956Z,72.67
2019-05-26T00:20:10.045Z,72.74
2019-05-26T00:23:04.038Z,72.72
2019-05-26T00:25:50.956Z,72.74
2019-05-26T00:28:38.176Z,73.03
2019-05-26T00:31:39.570Z,73.08
2019-05-26T00:34:41.117Z,73.29
2019-05-26T00:37:28.739Z,73.21
2019-05-26T00:40:29.978Z,73.30
2019-05-26T00:43:24.872Z,73.72
2019-05-26T00:46:11.803Z,73.65
2019-05-26T00:49:12.765Z,73.99
2019-05-26T00:52:06.901Z,73.88
2019-05-26T00:58:02.060Z,73.39
2019-05-26T01:00:50.482Z,73.46
2019-05-26T01:03:37.999Z,72.06
2019-05-26T01:06:24.813Z,73.51
2019-05-26T01:09:12.450Z,73.62
2019-05-26T01:12:08.459Z,73.72
2019-05-26T01:14:53.656Z,73.51
2019-05-26T01:17:40.707Z,73.84
2019-05-26T01:20:29.514Z,73.13
2019-05-26T01:23:16.599Z,74.44
2019-05-26T01:26:03.730Z,74.83
2019-05-26T01:32:11.078Z,74.78
2019-05-26T01:34:57.934Z,75.24
2019-05-26T01:37:45.542Z,75.25
2019-05-26T01:40:36.444Z,74.00
2019-05-26T01:49:50.293Z,75.51
2019-05-26T01:55:44.707Z,75.66
2019-05-26T01:58:49.103Z,75.47
2019-05-26T02:01:36.200Z,75.64
2019-05-26T02:04:37.598Z,74.19
2019-05-26T02:07:28.382Z,75.24
2019-05-26T02:10:15.689Z,75.61
2019-05-26T02:13:04.436Z,75.74
2019-05-26T02:15:52.373Z,75.87
2019-05-26T02:18:41.435Z,75.79
2019-05-26T02:21:28.383Z,74.41
2019-05-26T02:24:15.790Z,74.64
2019-05-26T02:27:03.809Z,75.49
2019-05-26T02:29:52.376Z,74.15
2019-05-26T02:32:39.477Z,75.22
2019-05-26T02:35:30.392Z,75.45
2019-05-26T02:38:26.311Z,74.04
2019-05-26T02:41:11.183Z,74.80
2019-05-26T02:44:12.709Z,75.50
2019-05-26T02:46:59.964Z,76.62
2019-05-26T02:49:47.144Z,76.80
2019-05-26T02:52:37.739Z,74.97
2019-05-26T02:55:25.792Z,75.90
2019-05-26T02:58:12.663Z,75.92
2019-05-26T03:00:59.941Z,75.82
2019-05-26T03:03:47.990Z,75.99
2019-05-26T03:09:41.225Z,76.61
2019-05-26T03:12:28.443Z,76.75
2019-05-26T03:15:18.931Z,76.76
2019-05-26T03:18:06.856Z,76.76
2019-05-26T03:21:01.442Z,76.58
2019-05-26T03:23:48.270Z,77.04
2019-05-26T03:26:36.389Z,77.15
2019-05-26T03:29:23.233Z,77.69
2019-05-26T03:32:10.455Z,77.79
2019-05-26T03:34:57.964Z,77.91
2019-05-26T03:40:51.516Z,77.72
2019-05-26T03:43:39.144Z,77.21
2019-05-26T03:46:25.992Z,76.98
2019-05-26T03:49:13.084Z,77.01
2019-05-26T03:52:02.022Z,77.31
2019-05-26T03:57:56.311Z,77.27
2019-05-26T04:00:43.234Z,75.69
2019-05-26T04:03:30.034Z,75.06
2019-05-26T04:06:17.206Z,76.56
2019-05-26T04:09:06.523Z,77.03
2019-05-26T04:12:08.368Z,77.21
2019-05-26T04:14:55.087Z,77.21
2019-05-26T04:17:49.571Z,77.31
2019-05-26T04:20:38.116Z,77.54
2019-05-26T04:23:25.143Z,77.35
2019-05-26T04:26:15.825Z,77.18
2019-05-26T04:29:02.737Z,76.99
2019-05-26T04:31:49.826Z,77.11
2019-05-26T04:34:37.578Z,77.18
2019-05-26T04:37:26.307Z,77.00
2019-05-26T04:40:26.692Z,76.93
2019-05-26T04:43:04.277Z,77.08
2019-05-26T04:45:51.619Z,77.07
2019-05-26T04:48:38.798Z,74.64
2019-05-26T04:51:25.818Z,76.23
2019-05-26T04:54:13.420Z,76.42
2019-05-26T04:57:00.354Z,76.32
2019-05-26T04:59:47.165Z,76.37
2019-05-26T05:02:35.481Z,76.72
2019-05-26T05:05:23.416Z,76.38
2019-05-26T05:11:23.640Z,76.68
2019-05-26T05:14:11.576Z,77.09
2019-05-26T05:16:58.894Z,75.03
2019-05-26T05:19:46.420Z,76.23
2019-05-26T05:22:33.682Z,76.85
2019-05-26T05:28:26.932Z,76.90
2019-05-26T05:31:13.641Z,76.50
2019-05-26T05:34:00.815Z,76.48
2019-05-26T05:36:47.647Z,76.08
2019-05-26T05:42:41.530Z,75.30
2019-05-26T05:45:28.410Z,75.51
2019-05-26T05:54:33.887Z,75.23
2019-05-26T05:57:20.742Z,74.67
2019-05-26T06:00:07.523Z,74.15
2019-05-26T06:02:55.143Z,71.81
2019-05-26T06:05:42.126Z,72.57
2019-05-26T06:08:30.566Z,72.56
2019-05-26T06:11:17.551Z,72.05
2019-05-26T06:14:04.882Z,71.60
2019-05-26T06:16:52.051Z,71.09
2019-05-26T06:19:39.161Z,70.49
2019-05-26T06:22:26.608Z,67.20
2019-05-26T06:25:14.424Z,65.76
2019-05-26T06:28:01.678Z,66.66
2019-05-26T06:30:48.751Z,66.89
2019-05-26T06:33:36.994Z,63.81
2019-05-26T06:36:25.662Z,65.08
2019-05-26T06:39:12.682Z,65.26
2019-05-26T06:42:00.508Z,64.43
2019-05-26T06:44:53.401Z,64.29
2019-05-26T06:47:34.454Z,64.28
2019-05-26T06:50:21.763Z,64.47
2019-05-26T06:53:09.065Z,64.10
2019-05-26T06:56:03.446Z,63.84
2019-05-26T06:58:54.482Z,63.28
2019-05-26T07:01:41.437Z,62.62
2019-05-26T07:04:28.801Z,58.36
2019-05-26T07:07:18.179Z,59.95
2019-05-26T07:10:05.454Z,60.15
2019-05-26T07:12:52.999Z,61.08
2019-05-26T07:15:43.441Z,60.49
2019-05-26T07:18:30.831Z,59.96
2019-05-26T07:21:17.567Z,58.78
2019-05-26T07:24:04.504Z,59.27
2019-05-26T07:26:58.826Z,58.97
2019-05-26T07:29:45.858Z,58.51
2019-05-26T07:32:33.047Z,53.16
2019-05-26T07:35:20.545Z,55.42
2019-05-26T07:38:07.250Z,56.55
2019-05-26T07:40:54.417Z,56.44
2019-05-26T07:43:55.735Z,51.82
2019-05-26T07:46:42.632Z,54.39
2019-05-26T07:49:29.704Z,54.46
2019-05-26T07:52:16.616Z,54.65
2019-05-26T07:55:17.916Z,54.24
2019-05-26T07:58:04.927Z,54.15
2019-05-26T08:00:52.979Z,53.33
2019-05-26T08:03:39.951Z,52.73
2019-05-26T08:06:41.541Z,46.57
2019-05-26T08:09:29.384Z,49.56
2019-05-26T08:12:25.997Z,44.90
2019-05-26T08:15:03.713Z,47.88
2019-05-26T08:17:50.747Z,48.04
2019-05-26T08:20:38.123Z,49.19
2019-05-26T08:23:25.461Z,49.30
2019-05-26T08:26:26.912Z,49.27
2019-05-26T08:29:28.271Z,41.87
2019-05-26T08:32:15.495Z,42.41
2019-05-26T08:35:02.368Z,41.42
2019-05-26T08:37:49.930Z,44.71
2019-05-26T08:40:36.945Z,45.10
2019-05-26T08:43:23.607Z,45.98
2019-05-26T08:46:10.266Z,45.88
2019-05-26T08:48:57.302Z,41.53
2019-05-26T08:51:44.470Z,40.31
2019-05-26T08:54:31.373Z,43.07
2019-05-26T08:57:19.601Z,42.42
2019-05-26T09:00:09.087Z,42.82
2019-05-26T09:02:57.214Z,43.77
2019-05-26T09:05:45.963Z,42.83
2019-05-26T09:08:33.106Z,43.26
2019-05-26T09:11:21.118Z,42.76
2019-05-26T09:14:08.109Z,39.19
2019-05-26T09:16:55.374Z,37.47
2019-05-26T09:19:42.196Z,36.41
2019-05-26T09:22:38.014Z,40.13
2019-05-26T09:25:30.842Z,41.15
2019-05-26T09:28:17.960Z,40.51
2019-05-26T09:31:05.265Z,40.77
2019-05-26T09:33:52.068Z,39.82
2019-05-26T09:36:39.270Z,40.29
2019-05-26T09:39:27.145Z,37.70
2019-05-26T09:42:13.958Z,39.81
2019-05-26T09:45:02.891Z,38.99
2019-05-26T09:47:50.642Z,40.52
2019-05-26T09:50:40.836Z,40.40
2019-05-26T09:53:27.842Z,40.42
2019-05-26T09:56:15.243Z,39.45
2019-05-26T09:59:03.176Z,40.53
2019-05-26T10:01:50.923Z,39.97
2019-05-26T10:04:45.026Z,40.19
2019-05-26T10:07:31.759Z,40.70
2019-05-26T10:10:18.749Z,40.31
2019-05-26T10:13:05.506Z,38.98
2019-05-26T10:15:53.041Z,39.96
2019-05-26T10:18:39.558Z,39.32
2019-05-26T10:21:27.744Z,39.85
2019-05-26T10:24:15.410Z,40.23
2019-05-26T10:27:02.296Z,39.98
2019-05-26T10:29:49.464Z,39.63
2019-05-26T10:32:36.251Z,39.02
2019-05-26T10:35:23.092Z,40.20
2019-05-26T10:38:09.867Z,40.33
2019-05-26T10:40:56.635Z,40.46
2019-05-26T10:43:47.302Z,40.83
2019-05-26T10:46:30.053Z,40.77
2019-05-26T10:49:17.119Z,39.79
2019-05-26T10:52:03.916Z,39.40
2019-05-26T10:54:50.889Z,40.56
2019-05-26T10:57:37.578Z,35.50
2019-05-26T11:00:24.426Z,38.19
2019-05-26T11:03:11.504Z,38.54
2019-05-26T11:05:58.097Z,39.03
2019-05-26T11:08:44.867Z,39.45
2019-05-26T11:11:32.091Z,39.92
2019-05-26T11:14:19.389Z,38.98
2019-05-26T11:17:06.023Z,39.07
2019-05-26T11:19:53.387Z,38.82
2019-05-26T11:22:41.367Z,38.65
2019-05-26T11:25:27.984Z,38.80
2019-05-26T11:28:15.303Z,37.83
2019-05-26T11:31:02.513Z,38.22
2019-05-26T11:33:49.241Z,38.27
2019-05-26T11:36:36.252Z,35.07
2019-05-26T11:39:23.252Z,37.47
2019-05-26T11:42:13.350Z,37.62
2019-05-26T11:44:57.559Z,38.38
2019-05-26T11:47:44.298Z,37.93
2019-05-26T11:50:31.665Z,38.18
2019-05-26T11:53:18.534Z,37.21
2019-05-26T11:56:05.389Z,38.32
2019-05-26T11:58:52.600Z,34.10
2019-05-26T12:01:39.972Z,35.57
2019-05-26T12:04:33.347Z,35.38
2019-05-26T12:07:20.065Z,36.48
2019-05-26T12:10:07.353Z,32.10
2019-05-26T12:12:54.526Z,31.12
2019-05-26T12:15:41.309Z,32.14
2019-05-26T12:18:29.296Z,31.04
2019-05-26T12:21:17.265Z,31.37
2019-05-26T12:24:04.740Z,33.93
2019-05-26T12:26:51.871Z,34.77
2019-05-26T12:29:38.944Z,35.10
2019-05-26T12:32:25.671Z,35.33
2019-05-26T12:35:12.318Z,35.23
2019-05-26T12:37:59.127Z,35.11
2019-05-26T12:40:46.736Z,35.75
2019-05-26T12:43:33.979Z,37.13
2019-05-26T12:46:20.907Z,36.75
2019-05-26T12:49:07.628Z,35.75
2019-05-26T12:51:55.014Z,35.31
2019-05-26T12:54:41.745Z,35.82
2019-05-26T12:57:28.515Z,35.43
2019-05-26T13:00:16.301Z,35.64
2019-05-26T13:03:03.395Z,31.63
2019-05-26T13:05:50.169Z,34.66
2019-05-26T13:08:37.360Z,34.49
2019-05-26T13:11:24.750Z,34.80
2019-05-26T13:14:11.440Z,34.86
2019-05-26T13:17:01.401Z,35.07
2019-05-26T13:19:48.022Z,35.26
2019-05-26T13:22:34.911Z,34.08
2019-05-26T13:25:21.937Z,32.29
2019-05-26T13:28:09.211Z,33.30
2019-05-26T13:30:56.380Z,33.57
2019-05-26T13:33:43.391Z,33.80
2019-05-26T13:36:30.612Z,32.48
2019-05-26T13:39:17.966Z,31.93
2019-05-26T13:42:05.473Z,32.21
2019-05-26T13:44:52.860Z,32.31
2019-05-26T13:47:39.669Z,32.79
2019-05-26T13:50:27.094Z,33.01
2019-05-26T13:53:14.081Z,32.54
2019-05-26T13:56:01.276Z,32.24
2019-05-26T13:58:48.211Z,32.45
2019-05-26T14:01:35.349Z,28.51
2019-05-26T14:04:22.804Z,31.25
2019-05-26T14:07:09.598Z,32.03
2019-05-26T14:09:56.730Z,32.00
2019-05-26T14:12:44.051Z,32.55
2019-05-26T14:15:38.232Z,32.50
2019-05-26T14:18:18.396Z,32.59
2019-05-26T14:21:05.495Z,32.47
2019-05-26T14:23:55.755Z,31.83
2019-05-26T14:26:42.585Z,29.10
2019-05-26T14:29:29.614Z,31.13
2019-05-26T14:32:16.303Z,30.78
2019-05-26T14:35:03.749Z,31.80
2019-05-26T14:37:50.696Z,31.31
2019-05-26T14:40:38.056Z,30.95
2019-05-26T14:43:25.075Z,30.45
2019-05-26T14:46:12.211Z,30.96
2019-05-26T14:48:59.589Z,29.64
2019-05-26T14:51:46.683Z,29.41
2019-05-26T14:54:33.775Z,29.25
2019-05-26T14:57:21.558Z,28.68
2019-05-26T15:00:10.900Z,28.08
2019-05-26T15:02:57.838Z,28.06
2019-05-26T15:05:45.054Z,27.66
2019-05-26T15:08:32.104Z,27.04
2019-05-26T15:11:19.032Z,26.50
2019-05-26T15:14:05.864Z,26.85
2019-05-26T15:16:53.240Z,27.13
2019-05-26T15:19:40.123Z,27.17
2019-05-26T15:22:27.080Z,26.31
2019-05-26T15:25:14.179Z,27.06
2019-05-26T15:28:02.539Z,27.53
2019-05-26T15:30:49.308Z,27.43
2019-05-26T15:33:36.939Z,28.26
2019-05-26T15:36:23.540Z,29.08
2019-05-26T15:39:10.778Z,28.56
2019-05-26T15:41:57.806Z,28.74
2019-05-26T15:44:44.819Z,29.21
2019-05-26T15:47:34.582Z,30.14
2019-05-26T15:50:21.577Z,29.50
2019-05-26T15:53:08.915Z,29.86
2019-05-26T15:55:55.682Z,29.93
2019-05-26T15:58:42.802Z,30.11
2019-05-26T16:01:30.177Z,25.92
2019-05-26T16:04:16.992Z,26.19
2019-05-26T16:07:13.402Z,27.93
2019-05-26T16:10:00.196Z,27.86
2019-05-26T16:12:46.828Z,28.11
2019-05-26T16:15:36.654Z,24.71
2019-05-26T16:18:23.234Z,27.35
2019-05-26T16:21:26.692Z,28.61
2019-05-26T16:23:57.460Z,29.31
2019-05-26T16:26:44.241Z,27.13
2019-05-26T16:29:31.457Z,28.87
2019-05-26T16:32:19.097Z,30.08
2019-05-26T16:35:05.134Z,30.69
2019-05-26T16:37:52.216Z,31.27
2019-05-26T16:40:42.356Z,29.63
2019-05-26T16:43:29.042Z,30.34
2019-05-26T16:46:18.761Z,30.02
2019-05-26T16:49:08.960Z,30.01
2019-05-26T16:51:58.980Z,29.61
2019-05-26T16:54:46.341Z,26.78
2019-05-26T16:57:42.906Z,26.60
2019-05-26T17:00:29.845Z,30.08
2019-05-26T17:03:16.987Z,31.40
2019-05-26T17:06:07.898Z,31.59
2019-05-26T17:08:53.395Z,31.74
2019-05-26T17:11:41.018Z,31.62
2019-05-26T17:14:27.847Z,31.81
2019-05-26T17:17:15.753Z,31.80
2019-05-26T17:20:03.167Z,32.09
2019-05-26T17:22:50.190Z,31.88
2019-05-26T17:25:37.199Z,31.28
2019-05-26T17:28:24.572Z,30.06
2019-05-26T17:31:17.705Z,29.65
2019-05-26T17:34:05.305Z,24.59
2019-05-26T17:36:51.748Z,27.18
2019-05-26T17:39:39.251Z,27.68
2019-05-26T17:42:27.674Z,27.72
2019-05-26T17:45:14.501Z,28.79
2019-05-26T17:48:01.335Z,29.71
2019-05-26T17:50:48.277Z,26.05
2019-05-26T17:53:35.316Z,28.78
2019-05-26T17:56:22.487Z,29.73
2019-05-26T17:59:10.184Z,29.83
2019-05-26T18:02:10.908Z,29.76
2019-05-26T18:04:57.716Z,29.84
2019-05-26T18:07:45.017Z,29.94
2019-05-26T18:10:32.109Z,30.23
2019-05-26T18:13:19.302Z,31.16
2019-05-26T18:16:06.291Z,32.02
2019-05-26T18:18:53.507Z,32.80
2019-05-26T18:21:40.416Z,33.48
2019-05-26T18:24:27.159Z,34.14
2019-05-26T18:27:14.099Z,34.92
2019-05-26T18:30:01.006Z,35.50
2019-05-26T18:32:54.060Z,36.29
2019-05-26T18:35:40.838Z,35.83
2019-05-26T18:38:28.004Z,36.33
2019-05-26T18:41:15.052Z,36.52
2019-05-26T18:44:02.449Z,38.56
2019-05-26T18:46:53.204Z,39.29
2019-05-26T18:49:36.941Z,39.69
2019-05-26T18:52:24.516Z,40.40
2019-05-26T18:55:11.466Z,40.89
2019-05-26T18:57:58.674Z,41.48
2019-05-26T19:00:45.594Z,41.81
2019-05-26T19:03:35.966Z,42.10
2019-05-26T19:06:37.229Z,42.78
2019-05-26T19:09:27.493Z,43.27
2019-05-26T19:12:14.915Z,43.50
2019-05-26T19:15:09.231Z,44.11
2019-05-26T19:17:56.575Z,44.48
2019-05-26T19:20:43.641Z,45.02
2019-05-26T19:23:30.852Z,45.79
2019-05-26T19:26:18.028Z,45.50
2019-05-26T19:29:04.758Z,45.83
2019-05-26T19:32:01.644Z,45.67
2019-05-26T19:34:48.790Z,45.63
2019-05-26T19:37:39.125Z,45.42
2019-05-26T19:40:25.935Z,45.17
2019-05-26T19:43:13.133Z,43.40
2019-05-26T19:46:04.268Z,44.43
2019-05-26T19:48:51.591Z,44.14
2019-05-26T19:51:41.926Z,44.34
2019-05-26T19:54:26.543Z,44.49
2019-05-26T19:57:13.650Z,44.29
2019-05-26T20:00:01.596Z,45.30
2019-05-26T20:02:49.082Z,45.68
2019-05-26T20:05:36.219Z,45.90
2019-05-26T20:08:23.958Z,45.86
2019-05-26T20:11:11.369Z,46.06
2019-05-26T20:13:58.090Z,46.49
2019-05-26T20:16:45.490Z,46.95
2019-05-26T20:22:38.037Z,47.50
2019-05-26T20:25:25.030Z,47.65
2019-05-26T20:28:12.065Z,47.56
2019-05-26T20:30:58.603Z,47.61
2019-05-26T20:33:45.393Z,47.84
2019-05-26T20:36:32.624Z,48.02
2019-05-26T20:39:22.960Z,47.74
2019-05-26T20:42:10.183Z,47.76
2019-05-26T20:44:57.152Z,47.66
2019-05-26T20:48:05.778Z,47.64
2019-05-26T20:50:58.453Z,47.75
2019-05-26T20:53:45.299Z,47.76
2019-05-26T20:56:32.444Z,47.92
2019-05-26T20:59:20.143Z,47.60
2019-05-26T21:02:07.040Z,48.58
2019-05-26T21:04:53.824Z,48.65
2019-05-26T21:07:56.470Z,48.72
2019-05-26T21:10:51.799Z,48.73
2019-05-26T21:13:38.547Z,48.33
2019-05-26T21:16:25.577Z,49.04
2019-05-26T21:19:12.885Z,47.88
2019-05-26T21:22:02.579Z,48.98
2019-05-26T21:24:49.379Z,49.10
2019-05-26T21:27:36.484Z,49.27
2019-05-26T21:30:23.726Z,49.37
2019-05-26T21:33:10.342Z,49.50
2019-05-26T21:35:57.147Z,49.63
2019-05-26T21:38:44.430Z,49.05
2019-05-26T21:41:37.364Z,50.06
2019-05-26T21:44:24.581Z,48.89
2019-05-26T21:47:20.602Z,50.07
2019-05-26T21:50:26.953Z,50.36
2019-05-26T21:53:14.149Z,50.54
2019-05-26T21:56:01.134Z,50.80
2019-05-26T21:58:47.932Z,51.21
2019-05-26T22:01:35.418Z,51.37
2019-05-26T22:04:22.688Z,51.57
2019-05-26T22:07:09.988Z,50.94
2019-05-26T22:09:58.952Z,52.02
2019-05-26T22:12:49.046Z,52.15
2019-05-26T22:15:41.457Z,52.24
2019-05-26T22:18:29.786Z,52.45
2019-05-26T22:21:16.730Z,52.60
2019-05-26T22:24:04.857Z,52.76
2019-05-26T22:26:51.641Z,53.07
2019-05-26T22:29:39.071Z,53.17
2019-05-26T22:32:26.361Z,53.33
2019-05-26T22:35:13.043Z,53.53
2019-05-26T22:38:01.043Z,53.55
2019-05-26T22:40:48.472Z,53.56
2019-05-26T22:46:45.174Z,53.55
2019-05-26T22:49:32.189Z,53.71
2019-05-26T22:52:19.103Z,53.62
2019-05-26T22:55:06.174Z,53.79
2019-05-26T22:58:21.039Z,53.80
2019-05-26T23:01:08.453Z,53.77
2019-05-26T23:03:55.477Z,53.97
2019-05-26T23:06:42.162Z,53.71
2019-05-26T23:09:29.359Z,53.60
2019-05-26T23:12:49.133Z,53.43
2019-05-26T23:15:36.252Z,53.52
2019-05-26T23:18:23.490Z,53.84
2019-05-26T23:21:10.511Z,53.54
2019-05-26T23:27:05.952Z,55.09
2019-05-26T23:29:52.830Z,55.03
2019-05-26T23:32:41.132Z,56.02
2019-05-26T23:38:40.664Z,55.96
2019-05-26T23:41:29.088Z,56.46
2019-05-26T23:47:22.618Z,56.73
2019-05-26T23:50:10.597Z,56.67
2019-05-26T23:52:57.941Z,56.70
2019-05-26T23:55:45.872Z,56.83
2019-05-26T23:58:33.893Z,56.93
